Time;durP1;ratioP1;P1;durP2;ratioP2;P2;SDS_P1;SDS_P2;PMS_P1;PMS_P2;Temp;Humidity;BMP_temperature;BMP_pressure;BME280_temperature;BME280_humidity;BME280_pressure;Samples;Min_cycle;Max_cycle;Signal;HPM_P1;HPM_P2
2023/06/09 00:00:13;;;;;;;28.73;14.98;;;18.20;99.90;;;;;;5074530;28;20025;-89
2023/06/09 00:05:40;;;;;;;29.42;14.63;;;18.20;99.90;;;;;;5066995;28;20040;-89
2023/06/09 00:08:22;;;;;;;32.03;15.35;;;18.20;99.90;;;;;;5074551;28;20024;-90
2023/06/09 00:11:00;;;;;;;27.98;15.10;;;18.20;99.90;;;;;;5074424;28;20386;-89
2023/06/09 00:13:27;;;;;;;26.05;13.88;;;18.20;99.90;;;;;;5074296;28;20039;-89
2023/06/09 00:15:56;;;;;;;26.00;15.13;;;18.20;99.90;;;;;;5073649;28;20036;-89
2023/06/09 00:18:24;;;;;;;29.60;14.88;;;18.20;99.90;;;;;;5074142;28;20083;-89
2023/06/09 00:21:03;;;;;;;26.95;15.07;;;18.10;99.90;;;;;;5074308;28;20025;-90
2023/06/09 00:23:36;;;;;;;30.45;15.05;;;18.10;99.90;;;;;;5074279;28;20189;-89
2023/06/09 00:26:02;;;;;;;31.83;15.93;;;18.10;99.90;;;;;;5074276;28;20028;-89
2023/06/09 00:28:28;;;;;;;28.10;15.52;;;18.10;99.90;;;;;;5073956;28;20493;-89
2023/06/09 00:30:57;;;;;;;27.05;15.55;;;18.10;99.90;;;;;;5074053;28;20035;-90
2023/06/09 00:33:27;;;;;;;30.52;15.40;;;18.00;99.90;;;;;;5074037;28;20033;-89
2023/06/09 00:35:56;;;;;;;30.58;16.23;;;17.90;99.90;;;;;;5073850;28;20119;-89
2023/06/09 00:38:23;;;;;;;28.50;15.60;;;17.90;99.90;;;;;;5074004;28;20031;-89
2023/06/09 00:41:02;;;;;;;30.20;15.20;;;18.00;99.90;;;;;;5073501;28;20379;-89
2023/06/09 00:43:33;;;;;;;27.95;14.88;;;18.00;99.90;;;;;;5072949;28;20059;-89
2023/06/09 00:46:14;;;;;;;;;;;;;;;;;;;;;
2023/06/09 00:48:56;;;;;;;28.50;15.10;;;18.00;99.90;;;;;;5074933;28;20024;-89
2023/06/09 00:51:22;;;;;;;;;;;18.00;99.90;;;;;;5067010;28;20036;-89
2023/06/09 00:53:54;;;;;;;30.23;15.55;;;17.90;99.90;;;;;;5071440;28;20009;-90
2023/06/09 00:56:23;;;;;;;31.58;16.45;;;18.00;99.90;;;;;;5073600;28;20064;-89
2023/06/09 00:58:50;;;;;;;25.27;14.15;;;18.00;99.90;;;;;;5073464;28;20025;-88
2023/06/09 01:01:16;;;;;;;25.83;14.38;;;18.00;99.90;;;;;;5073307;28;20111;-89
2023/06/09 01:03:50;;;;;;;31.92;15.05;;;18.00;99.90;;;;;;5073193;28;20036;-89
2023/06/09 01:07:05;;;;;;;28.90;14.82;;;18.00;99.90;;;;;;5073197;28;20024;-89
2023/06/09 01:10:06;;;;;;;28.05;15.70;;;18.00;99.90;;;;;;5065063;28;20033;-90
2023/06/09 01:12:59;;;;;;;25.87;14.53;;;18.00;99.90;;;;;;5055142;28;20040;-89
2023/06/09 01:15:47;;;;;;;30.45;15.38;;;18.00;99.90;;;;;;5072003;28;20037;-89
2023/06/09 01:18:15;;;;;;;27.40;14.52;;;18.00;99.90;;;;;;5055249;28;20383;-89
2023/06/09 01:21:20;;;;;;;25.75;13.95;;;18.00;99.90;;;;;;5055377;28;20033;-90
2023/06/09 01:24:00;;;;;;;27.35;14.38;;;18.00;99.90;;;;;;5067377;28;20047;-88
2023/06/09 01:26:31;;;;;;;31.08;14.82;;;18.00;99.90;;;;;;5045538;28;20123;-90
2023/06/09 01:29:04;;;;;;;29.03;14.10;;;18.00;99.90;;;;;;5049850;28;20112;-90
2023/06/09 01:31:42;;;;;;;29.20;14.60;;;18.00;99.90;;;;;;5048402;28;20174;-89
2023/06/09 01:34:12;;;;;;;23.90;13.05;;;17.90;99.90;;;;;;5067846;28;20128;-90
2023/06/09 01:36:57;;;;;;;;;;;;;;;;;;;;;
2023/06/09 01:39:33;;;;;;;23.55;13.68;;;17.90;99.90;;;;;;5066954;28;20046;-89
2023/06/09 01:42:13;;;;;;;26.38;14.32;;;17.90;99.90;;;;;;5054896;28;20094;-90
2023/06/09 01:44:48;;;;;;;26.17;13.73;;;17.90;99.90;;;;;;5068396;28;20029;-89
2023/06/09 01:48:04;;;;;;;30.48;14.52;;;17.90;99.90;;;;;;5070031;28;20038;-90
2023/06/09 01:50:48;;;;;;;24.60;14.18;;;17.90;99.90;;;;;;5012425;28;20041;-90
2023/06/09 01:53:17;;;;;;;27.63;14.32;;;17.90;99.90;;;;;;5015740;28;20037;-89
2023/06/09 01:55:55;;;;;;;27.08;13.85;;;17.80;99.90;;;;;;5002518;28;20030;-90
2023/06/09 01:58:44;;;;;;;26.25;14.55;;;17.80;99.90;;;;;;4995986;28;20038;-89
2023/06/09 02:02:00;;;;;;;;;;;;;;;;;;;;;
2023/06/09 02:07:54;;;;;;;26.73;13.38;;;17.70;99.90;;;;;;4908990;29;20047;-89
2023/06/09 02:17:44;;;;;;;29.33;15.02;;;17.60;99.90;;;;;;4881526;29;20158;-90
2023/06/09 02:27:07;;;;;;;;;;;;;;;;;;;;;
2023/06/09 02:30:08;;;;;;;33.33;16.77;;;17.70;99.90;;;;;;4825133;29;20066;-90
2023/06/09 02:33:03;;;;;;;29.08;14.88;;;17.70;99.90;;;;;;4814404;29;20062;-91
2023/06/09 02:35:39;;;;;;;32.90;15.88;;;17.70;99.90;;;;;;4826043;29;20490;-89
2023/06/09 02:38:11;;;;;;;29.67;15.60;;;17.70;99.90;;;;;;4825347;29;20046;-89
2023/06/09 02:41:11;;;;;;;;;;;;;;;;;;;;;
2023/06/09 02:43:38;;;;;;;29.98;15.45;;;17.70;99.90;;;;;;4816836;29;20043;-89
2023/06/09 02:46:09;;;;;;;31.42;14.80;;;17.70;99.90;;;;;;4835108;29;20027;-89
2023/06/09 02:48:40;;;;;;;32.28;15.82;;;17.70;99.90;;;;;;4839648;29;20071;-89
2023/06/09 02:51:43;;;;;;;;;;;;;;;;;;;;;
2023/06/09 03:08:52;;;;;;;31.23;15.63;;;17.70;99.90;;;;;;4771279;30;20130;-88
2023/06/09 03:11:22;;;;;;;28.77;15.50;;;17.70;99.90;;;;;;4771604;30;20051;-89
2023/06/09 03:30:59;;;;;;;30.60;17.10;;;17.60;99.90;;;;;;6319002;22;20084;-88
2023/06/09 03:34:08;;;;;;;32.15;16.58;;;17.60;99.90;;;;;;5084876;23;25444751;-89
2023/06/09 03:36:59;;;;;;;39.58;17.67;;;17.60;99.90;;;;;;6192616;23;20013;-88
2023/06/09 03:40:17;;;;;;;;;;;;;;;;;;;;;
2023/06/09 03:47:14;;;;;;;;;;;;;;;;;;;;;
2023/06/09 03:50:27;;;;;;;;;;;;;;;;;;;;;
2023/06/09 03:53:22;;;;;;;31.55;16.70;;;17.90;99.90;;;;;;6045147;23;20082;-89
2023/06/09 03:59:20;;;;;;;32.42;17.85;;;18.00;99.90;;;;;;6040753;23;20008;-89
2023/06/09 04:02:23;;;;;;;37.85;17.08;;;17.90;99.90;;;;;;6045734;23;20007;-88
2023/06/09 04:05:08;;;;;;;38.10;18.75;;;18.00;99.90;;;;;;5988382;24;20008;-88
2023/06/09 04:07:41;;;;;;;30.40;16.75;;;18.00;99.90;;;;;;5989197;24;20019;-88
2023/06/09 04:10:25;;;;;;;32.13;17.70;;;18.00;99.90;;;;;;6007124;23;20003;-88
2023/06/09 04:12:54;;;;;;;33.17;17.15;;;18.00;99.90;;;;;;6045939;23;20034;-87
2023/06/09 04:15:52;;;;;;;30.35;17.23;;;18.00;99.90;;;;;;6045563;23;20404;-90
2023/06/09 04:18:20;;;;;;;30.98;16.05;;;18.10;99.90;;;;;;6045884;23;20746;-89
2023/06/09 04:20:50;;;;;;;31.95;16.20;;;18.10;99.90;;;;;;6045250;23;20007;-88
2023/06/09 04:23:29;;;;;;;;;;;;;;;;;;;;;
2023/06/09 04:25:56;;;;;;;26.80;16.83;;;18.10;99.90;;;;;;6098260;23;20083;-88
2023/06/09 04:28:41;;;;;;;28.77;16.95;;;18.10;99.90;;;;;;6185063;23;20005;-89
2023/06/09 04:31:13;;;;;;;33.33;16.05;;;18.10;99.90;;;;;;6185905;23;20005;-89
2023/06/09 04:33:45;;;;;;;29.35;16.35;;;18.10;99.90;;;;;;6190037;23;20514;-88
2023/06/09 04:36:12;;;;;;;29.63;16.20;;;18.10;99.90;;;;;;6215619;23;20001;-90
2023/06/09 04:38:39;;;;;;;27.23;16.08;;;18.00;99.90;;;;;;6215394;23;20009;-88
2023/06/09 04:44:05;;;;;;;27.58;15.52;;;18.20;99.90;;;;;;6278859;22;20008;-89
2023/06/09 04:46:41;;;;;;;27.98;14.65;;;18.20;99.90;;;;;;6303127;22;19999;-89
2023/06/09 04:49:15;;;;;;;24.40;14.55;;;18.20;99.90;;;;;;6303074;22;20442;-88
2023/06/09 04:52:20;;;;;;;;;;;;;;;;;;;;;
2023/06/09 04:55:01;;;;;;;26.73;15.38;;;18.40;99.90;;;;;;6278858;22;20086;-91
2023/06/09 04:58:00;;;;;;;25.30;14.82;;;18.50;99.90;;;;;;6303930;22;20008;-90
2023/06/09 05:00:57;;;;;;;29.35;15.38;;;18.50;99.90;;;;;;6189961;23;19997;-89
2023/06/09 05:04:05;;;;;;;24.63;13.68;;;18.50;99.90;;;;;;6190058;23;20104;-90
2023/06/09 05:06:36;;;;;;;21.17;12.52;;;18.50;99.90;;;;;;6215074;23;20016;-88
2023/06/09 05:09:07;;;;;;;26.63;13.68;;;18.50;99.90;;;;;;6214903;23;20036;-87
2023/06/09 05:11:41;;;;;;;24.40;14.15;;;18.60;99.90;;;;;;6214910;23;20369;-87
2023/06/09 05:14:09;;;;;;;26.65;13.98;;;18.70;99.90;;;;;;6215636;23;20430;-87
2023/06/09 05:48:12;;;;;;;15.50;11.23;;;19.60;99.90;;;;;;6298264;22;20037;-87
2023/06/09 05:54:11;;;;;;;18.48;10.57;;;19.70;99.90;;;;;;6340566;22;20023;-89
2023/06/09 05:56:48;;;;;;;19.20;10.38;;;19.80;99.90;;;;;;6312788;22;20349;-88
2023/06/09 05:59:50;;;;;;;14.98;9.27;;;19.90;99.90;;;;;;6313058;22;20358;-88
2023/06/09 06:02:19;;;;;;;16.40;10.23;;;20.00;99.90;;;;;;6313270;22;20082;-86
2023/06/09 06:04:51;;;;;;;14.57;9.50;;;20.10;99.90;;;;;;6312410;22;20143;-87
2023/06/09 06:07:18;;;;;;;;;;;20.10;99.90;;;;;;6313250;22;20422;-89
2023/06/09 06:10:05;;;;;;;;;;;;;;;;;;;;;
2023/06/09 06:12:37;;;;;;;12.68;8.75;;;20.10;99.90;;;;;;6340058;22;20065;-88
2023/06/09 06:15:24;;;;;;;;;;;20.10;99.90;;;;;;6312893;22;20045;-88
2023/06/09 06:18:17;;;;;;;14.07;8.70;;;20.20;99.90;;;;;;6313100;22;19902;-88
2023/06/09 06:20:46;;;;;;;12.82;8.30;;;20.20;99.90;;;;;;6312814;22;19999;-88
2023/06/09 06:23:43;;;;;;;13.85;7.88;;;20.20;99.90;;;;;;6312922;22;20095;-89
2023/06/09 06:26:12;;;;;;;15.75;8.75;;;20.30;99.90;;;;;;6189278;23;20314;-87
2023/06/09 06:28:50;;;;;;;13.50;9.02;;;20.50;99.90;;;;;;6188853;23;20063;-89
2023/06/09 06:31:31;;;;;;;16.63;9.32;;;20.40;99.90;;;;;;6189998;23;20008;-88
2023/06/09 06:34:31;;;;;;;16.27;9.13;;;20.50;99.90;;;;;;6188739;23;20007;-87
2023/06/09 06:37:07;;;;;;;16.10;8.80;;;20.70;99.90;;;;;;6180456;23;20009;-89
2023/06/09 06:40:13;;;;;;;14.60;9.52;;;20.80;99.90;;;;;;6186100;23;20001;-89
2023/06/09 06:43:03;;;;;;;15.55;9.48;;;20.90;99.90;;;;;;6210040;23;20009;-89
2023/06/09 06:45:32;;;;;;;14.60;9.00;;;21.00;99.90;;;;;;6189728;23;20412;-89
2023/06/09 06:51:48;;;;;;;12.43;8.63;;;;;;;;;;6183941;23;20028;-88
2023/06/09 06:58:04;;;;;;;;;;;;;;;;;;;;;
2023/06/09 07:08:16;;;;;;;13.70;9.85;;;21.50;99.90;;;;;;5898237;24;20348;-89
2023/06/09 07:28:37;;;;;;;17.45;8.93;;;22.10;99.90;;;;;;5683529;25;20016;-89
2023/06/09 07:31:23;;;;;;;;;;;;;;;;;;;;;
2023/06/09 07:34:37;;;;;;;12.35;8.93;;;22.20;99.90;;;;;;5724596;25;20060;-89
2023/06/09 07:38:00;;;;;;;;;;;;;;;;;;;;;
2023/06/09 07:40:29;;;;;;;16.42;9.90;;;22.30;99.90;;;;;;5713446;25;20091;-90
2023/06/09 07:46:10;;;;;;;14.50;10.20;;;;;;;;;;5844396;24;20011;-89
2023/06/09 07:48:56;;;;;;;14.32;10.27;;;22.30;99.90;;;;;;5844539;24;20099;-88
2023/06/09 07:51:29;;;;;;;13.80;10.18;;;;;;;;;;5861517;24;20363;-89
2023/06/09 07:54:24;;;;;;;16.63;10.35;;;;;;;;;;5965048;23;20007;-90
2023/06/09 07:56:51;;;;;;;15.90;10.02;;;;;;;;;;5997283;23;20011;-88
2023/06/09 08:02:23;;;;;;;16.02;10.48;;;;;;;;;;6009302;23;20026;-88
2023/06/09 08:04:50;;;;;;;16.30;10.68;;;;;;;;;;5987770;23;20011;-88
2023/06/09 08:07:48;;;;;;;14.70;10.25;;;;;;;;;;5987171;23;20436;-89
2023/06/09 08:10:14;;;;;;;18.50;10.10;;;;;;;;;;5954785;24;20009;-87
2023/06/09 08:15:33;;;;;;;16.38;11.07;;;;;;;;;;6068223;23;20006;-89
2023/06/09 08:18:05;;;;;;;15.60;10.23;;;;;;;;;;6067100;23;20339;-87
2023/06/09 08:20:50;;;;;;;;;;;;;;;;;;;;;
2023/06/09 08:23:20;;;;;;;20.88;11.48;;;;;;;;;;6068261;23;20085;-88
2023/06/09 08:25:52;;;;;;;17.92;11.18;;;;;;;;;;6068069;23;20007;-89
2023/06/09 08:28:21;;;;;;;18.13;11.73;;;;;;;;;;6067708;23;20077;-87
2023/06/09 08:31:42;;;;;;;;;;;;;;;;;;;;;
2023/06/09 08:34:01;;;;;;;20.30;11.95;;;;;;;;;;6068618;23;20367;-89
2023/06/09 08:36:27;;;;;;;17.23;10.70;;;;;;;;;;6067700;23;20079;-88
2023/06/09 08:38:54;;;;;;;16.27;11.50;;;;;;;;;;6080310;23;20006;-89
2023/06/09 08:41:32;;;;;;;19.77;12.77;;;;;;;;;;6097006;23;20003;-89
2023/06/09 08:43:58;;;;;;;16.88;11.65;;;;;;;;;;6097236;23;20007;-87
2023/06/09 08:49:12;;;;;;;16.65;10.30;;;;;;;;;;6155461;23;20079;-88
2023/06/09 08:51:38;;;;;;;18.85;11.07;;;;;;;;;;6155141;22;20005;-85
2023/06/09 08:54:06;;;;;;;17.10;11.90;;;;;;;;;;6340265;22;19999;-88
2023/06/09 08:56:33;;;;;;;18.65;11.10;;;;;;;;;;6339655;22;20006;-88
2023/06/09 08:58:59;;;;;;;13.80;10.52;;;;;;;;;;6339434;22;20093;-87
2023/06/09 09:01:28;;;;;;;15.25;11.23;;;;;;;;;;6339605;22;20466;-88
2023/06/09 09:03:55;;;;;;;13.60;9.13;;;;;;;;;;6339479;22;19999;-88
2023/06/09 09:06:21;;;;;;;15.18;9.75;;;;;;;;;;6313220;22;20006;-88
2023/06/09 09:08:47;;;;;;;14.05;9.57;;;;;;;;;;6313650;22;20041;-88
2023/06/09 09:11:14;;;;;;;10.50;8.40;;;;;;;;;;6313990;22;20292;-87
2023/06/09 09:13:40;;;;;;;11.40;8.55;;;;;;;;;;6313468;22;20047;-88
2023/06/09 09:16:13;;;;;;;13.27;8.98;;;;;;;;;;6313397;22;20007;-88
2023/06/09 09:18:58;;;;;;;16.77;9.60;;;;;;;;;;6313626;22;19999;-88
2023/06/09 09:21:31;;;;;;;18.20;10.15;;;;;;;;;;6313694;22;20006;-92
2023/06/09 09:24:06;;;;;;;12.13;9.40;;;;;;;;;;6339627;22;20027;-89
2023/06/09 09:26:32;;;;;;;11.35;8.95;;;;;;;;;;6312669;22;20009;-88
2023/06/09 09:29:05;;;;;;;13.05;8.48;;;;;;;;;;6313077;22;20411;-89
2023/06/09 09:31:36;;;;;;;13.65;9.70;;;;;;;;;;6313688;22;20003;-89
2023/06/09 09:34:02;;;;;;;14.55;9.20;;;;;;;;;;6313571;22;20011;-89
2023/06/09 09:36:29;;;;;;;12.07;8.63;;;;;;;;;;6313143;22;20072;-89
2023/06/09 09:38:56;;;;;;;11.00;8.38;;;;;;;;;;6312564;22;20378;-89
2023/06/09 09:41:22;;;;;;;13.88;8.63;;;;;;;;;;6312804;22;20002;-89
2023/06/09 09:43:54;;;;;;;13.77;9.55;;;;;;;;;;6313221;22;20001;-88
2023/06/09 09:46:22;;;;;;;15.10;9.15;;;;;;;;;;6313037;22;20081;-86
2023/06/09 09:48:49;;;;;;;10.40;8.10;;;;;;;;;;6312251;22;20415;-87
2023/06/09 09:51:19;;;;;;;13.70;8.18;;;;;;;;;;6340577;22;20055;-85
2023/06/09 09:53:45;;;;;;;10.88;7.82;;;;;;;;;;6312533;22;20300;-86
2023/06/09 09:56:14;;;;;;;10.98;7.80;;;;;;;;;;6311917;22;20002;-87
2023/06/09 09:58:42;;;;;;;13.18;8.00;;;;;;;;;;6312493;22;20080;-85
2023/06/09 10:01:11;;;;;;;12.43;8.20;;;;;;;;;;6312368;22;19999;-88
2023/06/09 10:03:44;;;;;;;11.75;7.88;;;;;;;;;;6312128;22;20098;-85
2023/06/09 10:06:13;;;;;;;14.60;8.85;;;;;;;;;;6312686;22;20292;-87
2023/06/09 10:08:41;;;;;;;13.57;8.10;;;;;;;;;;6312220;22;20318;-86
2023/06/09 10:11:08;;;;;;;11.48;7.72;;;;;;;;;;6312460;22;20002;-87
2023/06/09 10:13:34;;;;;;;11.75;8.10;;;;;;;;;;6312438;22;19995;-85
2023/06/09 10:16:01;;;;;;;10.07;7.47;;;;;;;;;;6311516;22;20003;-87
2023/06/09 10:18:27;;;;;;;10.30;8.05;;;;;;;;;;6312301;22;20018;-87
2023/06/09 10:20:54;;;;;;;9.98;7.35;;;;;;;;;;6312489;22;19995;-88
2023/06/09 10:23:21;;;;;;;12.02;7.38;;;;;;;;;;6312133;22;19999;-87
2023/06/09 10:25:48;;;;;;;11.20;7.00;;;;;;;;;;6311940;22;20431;-85
2023/06/09 10:28:16;;;;;;;12.02;8.02;;;;;;;;;;6312246;22;20407;-85
2023/06/09 10:30:42;;;;;;;11.82;7.97;;;;;;;;;;6311864;22;20073;-87
2023/06/09 10:33:28;;;;;;;13.88;7.90;;;;;;;;;;6312554;22;20003;-84
2023/06/09 10:35:58;;;;;;;10.80;7.30;;;;;;;;;;6312171;22;20011;-87
2023/06/09 10:38:28;;;;;;;10.15;7.25;;;;;;;;;;6311813;22;19998;-85
2023/06/09 10:41:00;;;;;;;10.82;7.03;;;;;;;;;;6312162;22;20474;-86
2023/06/09 10:43:56;;;;;;;13.48;7.68;;;;;;;;;;6312070;22;20029;-87
2023/06/09 10:46:42;;;;;;;11.98;6.90;;;;;;;;;;6188432;23;20495;-87
2023/06/09 10:49:08;;;;;;;9.40;6.00;;;;;;;;;;6188348;23;20001;-86
2023/06/09 10:51:35;;;;;;;9.48;6.35;;;;;;;;;;6188490;23;20028;-87
2023/06/09 10:54:07;;;;;;;8.95;6.97;;;;;;;;;;6188512;23;20088;-87
2023/06/09 10:56:34;;;;;;;11.70;6.95;;;;;;;;;;6188549;23;20083;-86
2023/06/09 10:59:00;;;;;;;12.38;6.93;;;;;;;;;;6188899;23;20009;-86
2023/06/09 11:01:26;;;;;;;9.27;6.82;;;;;;;;;;6188283;23;20028;-87
2023/06/09 11:03:52;;;;;;;10.30;6.28;;;;;;;;;;6188353;23;20004;-86
2023/06/09 11:06:18;;;;;;;9.55;5.80;;;;;;;;;;6213070;23;20091;-85
2023/06/09 11:09:03;;;;;;;7.45;5.57;;;;;;;;;;6188408;23;20130;-84
2023/06/09 11:11:47;;;;;;;7.63;6.07;;;;;;;;;;6188486;23;20404;-85
2023/06/09 11:14:32;;;;;;;8.70;6.38;;;;;;;;;;6188247;23;20005;-85
2023/06/09 11:17:17;;;;;;;8.93;6.25;;;;;;;;;;6188337;23;20009;-83
2023/06/09 11:19:43;;;;;;;6.63;5.25;;;;;;;;;;6187896;23;20107;-85
2023/06/09 11:22:09;;;;;;;8.50;6.30;;;;;;;;;;6220320;22;20427;-85
2023/06/09 11:24:52;;;;;;;9.23;6.97;;;;;;;;;;6311574;22;20005;-86
2023/06/09 11:27:19;;;;;;;10.45;7.13;;;;;;;;;;6310895;22;20056;-85
2023/06/09 11:30:04;;;;;;;10.43;7.22;;;;;;;;;;6311321;22;20041;-86
2023/06/09 11:33:06;;;;;;;7.90;6.10;;;;;;;;;;6311799;22;20027;-86
2023/06/09 11:35:36;;;;;;;;;;;;;;;;;;6189059;23;20357;-84
2023/06/09 11:38:05;;;;;;;7.05;5.65;;;;;;;;;;6189849;23;19904;-85
2023/06/09 11:40:32;;;;;;;7.97;5.68;;;;;;;;;;6214961;23;20015;-84
2023/06/09 11:43:00;;;;;;;10.02;6.40;;;;;;;;;;6190259;23;20011;-83
2023/06/09 11:45:32;;;;;;;8.88;6.40;;;;;;;;;;6190319;23;20004;-84
2023/06/09 11:48:01;;;;;;;11.35;6.85;;;;;;;;;;6189629;23;20005;-84
2023/06/09 11:50:36;;;;;;;12.35;6.43;;;;;;;;;;6214719;23;20020;-84
2023/06/09 11:53:06;;;;;;;10.35;6.85;;;;;;;;;;6190462;23;20001;-86
2023/06/09 11:55:32;;;;;;;10.15;6.80;;;;;;;;;;6189755;23;20009;-84
2023/06/09 11:57:59;;;;;;;12.02;7.18;;;;;;;;;;6190085;23;20008;-84
2023/06/09 12:00:29;;;;;;;8.30;6.30;;;;;;;;;;6190049;23;20399;-84
2023/06/09 12:02:56;;;;;;;11.18;7.00;;;;;;;;;;6189757;23;20000;-84
2023/06/09 12:05:23;;;;;;;9.18;6.43;;;;;;;;;;6190222;23;20360;-83
2023/06/09 12:07:50;;;;;;;9.57;5.88;;;;;;;;;;6189365;23;19997;-84
2023/06/09 12:10:20;;;;;;;7.07;5.22;;;;;;;;;;6291934;22;20434;-86
2023/06/09 12:12:47;;;;;;;9.83;5.63;;;;;;;;;;6313607;22;20003;-86
2023/06/09 12:15:15;;;;;;;7.57;5.20;;;;;;;;;;6312918;22;20006;-85
2023/06/09 12:17:41;;;;;;;8.60;5.35;;;;;;;;;;6341069;22;20006;-86
2023/06/09 12:20:19;;;;;;;6.78;4.85;;;;;;;;;;6313265;22;20026;-88
2023/06/09 12:22:46;;;;;;;6.97;4.90;;;;;;;;;;6313068;22;20006;-87
2023/06/09 12:25:21;;;;;;;7.03;4.45;;;;;;;;;;6313761;22;20009;-86
2023/06/09 12:27:47;;;;;;;6.70;4.97;;;;;;;;;;6313355;22;20003;-87
2023/06/09 12:30:32;;;;;;;5.05;4.45;;;;;;;;;;6313011;22;20001;-86
2023/06/09 12:33:03;;;;;;;11.43;5.32;;;;;;;;;;6313401;22;19999;-86
2023/06/09 12:35:36;;;;;;;9.40;4.57;;;;;;;;;;6313489;22;20030;-86
2023/06/09 12:38:09;;;;;;;6.80;4.35;;;;;;;;;;6340921;22;20002;-87
2023/06/09 12:40:47;;;;;;;6.30;4.43;;;;;;;;;;6313289;22;19999;-85
2023/06/09 12:43:14;;;;;;;5.57;3.90;;;;;;;;;;6312803;22;20006;-86
2023/06/09 12:45:44;;;;;;;4.70;3.97;;;;;;;;;;6313354;22;20009;-86
2023/06/09 12:48:10;;;;;;;5.40;4.15;;;;;;;;;;6312901;22;19999;-86
2023/06/09 12:50:37;;;;;;;5.25;3.35;;;;;;;;;;6312532;22;20006;-86
2023/06/09 12:53:05;;;;;;;5.22;3.63;;;;;;;;;;6313450;22;20433;-87
2023/06/09 12:55:31;;;;;;;5.70;3.35;;;;;;;;;;6313076;22;20003;-86
2023/06/09 12:57:57;;;;;;;4.47;3.50;;;;;;;;;;6312749;22;20090;-85
2023/06/09 13:00:23;;;;;;;6.47;3.40;;;;;;;;;;6313046;22;19999;-87
2023/06/09 13:02:50;;;;;;;4.38;3.20;;;;;;;;;;6313107;22;20323;-86
2023/06/09 13:05:16;;;;;;;5.97;4.20;;;;;;;;;;6313019;22;20013;-86
2023/06/09 13:07:43;;;;;;;5.65;3.30;;;;;;;;;;6312809;22;20027;-85
2023/06/09 13:10:10;;;;;;;6.05;3.33;;;;;;;;;;6312762;22;20006;-85
2023/06/09 13:12:36;;;;;;;5.68;3.20;;;;;;;;;;6312229;22;19995;-86
2023/06/09 13:15:03;;;;;;;6.00;3.28;;;;;;;;;;6312617;22;20365;-85
2023/06/09 13:17:29;;;;;;;4.45;3.10;;;;;;;;;;6339517;22;20033;-86
2023/06/09 13:19:55;;;;;;;6.22;3.05;;;;;;;;;;6311982;22;20328;-85
2023/06/09 13:22:21;;;;;;;4.13;2.95;;;;;;;;;;6312552;22;19999;-85
2023/06/09 13:24:48;;;;;;;6.10;2.72;;;;;;;;;;6312149;22;20018;-85
2023/06/09 13:27:14;;;;;;;4.68;2.72;;;;;;;;;;6312279;22;19998;-85
2023/06/09 13:29:40;;;;;;;4.45;3.10;;;;;;;;;;6312518;22;20002;-84
2023/06/09 13:32:06;;;;;;;3.08;2.65;;;;;;;;;;6312197;22;20003;-85
2023/06/09 13:34:35;;;;;;;3.25;2.50;;;;;;;;;;6312501;22;20002;-85
2023/06/09 13:37:02;;;;;;;4.20;2.75;;;;;;;;;;6340066;22;19998;-86
2023/06/09 13:39:31;;;;;;;5.07;3.08;;;;;;;;;;6311742;22;19999;-84
2023/06/09 13:41:59;;;;;;;5.45;2.50;;;;;;;;;;6312456;22;20034;-86
2023/06/09 13:44:26;;;;;;;4.35;2.90;;;;;;;;;;6312802;22;20081;-84
2023/06/09 13:46:52;;;;;;;5.22;3.13;;;;;;;;;;6311694;22;19999;-87
2023/06/09 13:49:18;;;;;;;5.45;3.00;;;;;;;;;;6311846;22;20006;-85
2023/06/09 13:51:44;;;;;;;4.03;2.85;;;;;;;;;;6312421;22;19999;-85
2023/06/09 13:54:10;;;;;;;3.28;2.67;;;;;;;;;;6311818;22;20457;-86
2023/06/09 13:56:36;;;;;;;3.47;2.83;;;;;;;;;;6311856;22;20433;-86
2023/06/09 13:59:02;;;;;;;4.78;3.03;;;;;;;;;;6311587;22;20308;-84
2023/06/09 14:01:29;;;;;;;4.35;3.30;;;;;;;;;;6311527;22;20005;-84
2023/06/09 14:03:55;;;;;;;4.85;3.17;;;;;;;;;;6312401;22;20052;-85
2023/06/09 14:06:25;;;;;;;4.47;3.08;;;;;;;;;;6312418;22;20003;-84
2023/06/09 14:08:51;;;;;;;4.72;3.40;;;;;;;;;;6311522;22;20002;-84
2023/06/09 14:11:18;;;;;;;4.93;3.28;;;;;;;;;;6312339;22;20003;-81
2023/06/09 14:13:44;;;;;;;4.30;3.50;;;;;;;;;;6311898;22;19998;-83
2023/06/09 14:16:10;;;;;;;4.35;2.90;;;;;;;;;;6339929;22;20072;-83
2023/06/09 14:18:36;;;;;;;6.05;3.47;;;;;;;;;;6312314;22;20024;-85
2023/06/09 14:21:06;;;;;;;3.97;3.17;;;;;;;;;;6311905;22;20454;-84
2023/06/09 14:23:32;;;;;;;4.25;2.60;;;;;;;;;;6339396;22;20363;-82
2023/06/09 14:25:58;;;;;;;5.47;2.95;;;;;;;;;;6339677;22;20073;-83
2023/06/09 14:28:24;;;;;;;8.07;3.25;;;;;;;;;;6311258;22;20006;-84
2023/06/09 14:30:50;;;;;;;4.72;3.38;;;;;;;;;;6339780;22;19998;-82
2023/06/09 14:33:16;;;;;;;4.80;3.08;;;;;;;;;;6312204;22;20003;-83
2023/06/09 14:35:46;;;;;;;4.82;3.30;;;;;;;;;;6311673;22;20007;-83
2023/06/09 14:38:12;;;;;;;3.42;2.65;;;;;;;;;;6339519;22;19995;-84
2023/06/09 14:40:38;;;;;;;4.05;2.67;;;;;;;;;;6339254;22;20005;-84
2023/06/09 14:43:05;;;;;;;6.43;3.30;;;;;;;;;;6311763;22;20419;-83
2023/06/09 14:45:32;;;;;;;4.50;3.20;;;;;;;;;;6312091;22;20007;-83
2023/06/09 14:48:02;;;;;;;6.15;2.97;;;;;;;;;;6339706;22;19991;-82
2023/06/09 14:50:32;;;;;;;3.88;2.90;;;;;;;;;;6311008;22;20089;-81
2023/06/09 14:52:59;;;;;;;3.63;2.65;;;;;;;;;;6311964;22;20461;-83
2023/06/09 14:55:26;;;;;;;3.40;2.50;;;;;;;;;;6312013;22;20052;-81
2023/06/09 14:57:53;;;;;;;4.88;2.70;;;;;;;;;;6339255;22;20006;-81
2023/06/09 15:00:21;;;;;;;3.30;2.53;;;;;;;;;;6339635;22;20430;-82
2023/06/09 15:02:47;;;;;;;5.88;2.83;;;;;;;;;;6311434;22;20006;-82
2023/06/09 15:05:15;;;;;;;4.22;2.67;;;;;;;;;;6311776;22;19999;-82
2023/06/09 15:07:41;;;;;;;3.65;2.53;;;;;;;;;;6339170;22;19995;-82
2023/06/09 15:10:08;;;;;;;4.00;2.55;;;;;;;;;;6338901;22;19999;-82
2023/06/09 15:12:36;;;;;;;4.57;2.78;;;;;;;;;;6311652;22;20086;-82
2023/06/09 15:15:02;;;;;;;3.10;2.50;;;;;;;;;;6311637;22;20096;-82
2023/06/09 15:17:28;;;;;;;4.25;2.72;;;;;;;;;;6338839;22;19995;-83
2023/06/09 15:19:54;;;;;;;4.70;3.00;;;;;;;;;;6311641;22;19999;-82
2023/06/09 15:22:21;;;;;;;4.70;2.75;;;;;;;;;;6311507;22;20416;-83
2023/06/09 15:24:47;;;;;;;4.40;2.28;;;;;;;;;;6311437;22;20025;-83
2023/06/09 15:27:13;;;;;;;4.50;2.80;;;;;;;;;;6311630;22;20007;-83
2023/06/09 15:29:39;;;;;;;4.60;2.80;;;;;;;;;;6311663;22;20005;-83
2023/06/09 15:32:05;;;;;;;3.63;2.60;;;;;;;;;;6311781;22;19999;-82
2023/06/09 15:34:32;;;;;;;4.20;2.85;;;;;;;;;;6311342;22;20003;-83
2023/06/09 15:36:58;;;;;;;4.63;2.85;;;;;;;;;;6339305;22;20074;-83
2023/06/09 15:39:24;;;;;;;3.50;2.50;;;;;;;;;;6311734;22;20007;-83
2023/06/09 15:41:50;;;;;;;3.97;2.72;;;;;;;;;;6311307;22;20082;-84
2023/06/09 15:44:16;;;;;;;3.90;2.78;;;;;;;;;;6311309;22;20002;-83
2023/06/09 15:46:44;;;;;;;4.25;2.22;;;;;;;;;;6311252;22;20006;-83
2023/06/09 15:49:10;;;;;;;3.85;2.25;;;;;;;;;;6311064;22;19999;-83
2023/06/09 15:51:36;;;;;;;4.32;2.58;;;;;;;;;;6311721;22;20044;-84
2023/06/09 15:54:03;;;;;;;4.07;2.53;;;;;;;;;;6311581;22;19995;-82
2023/06/09 15:56:29;;;;;;;3.83;2.40;;;;;;;;;;6311014;22;20365;-83
2023/06/09 15:58:55;;;;;;;4.07;2.75;;;;;;;;;;6339357;22;19995;-83
2023/06/09 16:01:21;;;;;;;2.70;2.20;;;;;;;;;;6311094;22;20051;-82
2023/06/09 16:03:48;;;;;;;6.47;2.75;;;;;;;;;;6311175;22;20003;-84
2023/06/09 16:06:14;;;;;;;4.20;2.50;;;;;;;;;;6311448;22;19999;-83
2023/06/09 16:08:40;;;;;;;4.25;2.55;;;;;;;;;;6311475;22;20415;-83
2023/06/09 16:11:07;;;;;;;4.13;2.60;;;;;;;;;;6338837;22;19995;-83
2023/06/09 16:13:34;;;;;;;4.45;2.80;;;;;;;;;;6311155;22;20404;-83
2023/06/09 16:16:00;;;;;;;4.15;2.70;;;;;;;;;;6311487;22;20007;-82
2023/06/09 16:18:26;;;;;;;5.13;2.30;;;;;;;;;;6310773;22;20007;-82
2023/06/09 16:20:52;;;;;;;5.18;2.90;;;;;;;;;;6310871;22;20056;-82
2023/06/09 16:23:18;;;;;;;4.90;2.30;;;;;;;;;;6339146;22;19995;-84
2023/06/09 16:25:44;;;;;;;3.90;2.10;;;;;;;;;;6313367;22;20006;-82
2023/06/09 16:28:11;;;;;;;4.53;3.10;;;;;;;;;;6340722;22;20005;-82
2023/06/09 16:30:38;;;;;;;5.50;2.60;;;;;;;;;;6312864;22;20100;-83
2023/06/09 16:33:08;;;;;;;3.92;2.80;;;;;;;;;;6313222;22;20407;-83
2023/06/09 16:35:34;;;;;;;4.85;2.08;;;;;;;;;;6312998;22;20369;-83
2023/06/09 16:38:00;;;;;;;3.35;2.15;;;;;;;;;;6312760;22;20483;-83
2023/06/09 16:40:28;;;;;;;3.92;2.60;;;;;;;;;;6312706;22;20026;-84
2023/06/09 16:42:55;;;;;;;4.53;2.83;;;;;;;;;;6312936;22;20006;-84
2023/06/09 16:45:22;;;;;;;5.78;2.53;;;;;;;;;;6312751;22;19999;-82
2023/06/09 16:47:48;;;;;;;4.88;2.40;;;;;;;;;;6311611;22;20007;-83
2023/06/09 16:50:15;;;;;;;6.35;2.55;;;;;;;;;;6312480;22;20085;-82
2023/06/09 16:52:41;;;;;;;5.60;2.58;;;;;;;;;;6312506;22;20322;-80
2023/06/09 16:55:07;;;;;;;3.70;2.78;;;;;;;;;;6339665;22;19999;-82
2023/06/09 16:57:33;;;;;;;5.40;2.22;;;;;;;;;;6312899;22;20056;-82
2023/06/09 17:00:00;;;;;;;6.20;2.50;;;;;;;;;;6312056;22;19998;-83
2023/06/09 17:02:26;;;;;;;4.47;2.90;;;;;;;;;;6312831;22;19999;-82
2023/06/09 17:04:52;;;;;;;7.80;3.28;;;;;;;;;;6340472;22;20002;-82